createdAt,value
2023-01-27T00:02:38.848Z,16.77
2023-01-27T00:06:51.230Z,16.48
2023-01-27T00:11:22.102Z,13.98
2023-01-27T00:15:35.415Z,17.08
2023-01-27T00:19:48.233Z,15.27
2023-01-27T00:24:18.986Z,13.82
2023-01-27T00:28:31.521Z,13.10
2023-01-27T00:33:02.188Z,15.77
2023-01-27T00:37:14.925Z,15.55
2023-01-27T00:41:29.210Z,14.73
2023-01-27T00:45:51.480Z,20.80
2023-01-27T00:50:12.915Z,15.45
2023-01-27T00:54:26.470Z,11.65
2023-01-27T00:58:39.387Z,17.30
2023-01-27T01:03:01.107Z,11.38
2023-01-27T01:07:16.561Z,11.63
2023-01-27T01:11:29.483Z,4.78
2023-01-27T01:15:42.818Z,4.80
2023-01-27T01:19:55.156Z,4.55
2023-01-27T01:24:07.557Z,4.18
2023-01-27T01:28:21.574Z,3.90
2023-01-27T01:32:36.592Z,5.03
2023-01-27T01:36:48.986Z,6.35
2023-01-27T01:41:04.104Z,5.82
2023-01-27T01:45:39.610Z,11.88
2023-01-27T01:49:51.935Z,13.65
2023-01-27T01:54:09.837Z,12.35
2023-01-27T01:58:23.720Z,13.43
2023-01-27T02:02:37.414Z,12.65
2023-01-27T02:07:20.399Z,13.13
2023-01-27T02:11:32.897Z,13.82
2023-01-27T02:15:47.896Z,16.70
2023-01-27T02:20:32.200Z,25.90
2023-01-27T02:24:50.972Z,22.52
2023-01-27T02:29:06.686Z,27.58
2023-01-27T02:33:19.100Z,29.83
2023-01-27T02:37:33.232Z,33.30
2023-01-27T02:41:51.463Z,29.60
2023-01-27T02:46:04.541Z,28.40
2023-01-27T02:50:17.980Z,29.17
2023-01-27T02:54:31.201Z,27.27
2023-01-27T02:58:43.863Z,29.95
2023-01-27T03:03:02.420Z,29.20
2023-01-27T03:07:14.791Z,26.70
2023-01-27T03:11:45.439Z,27.52
2023-01-27T03:16:20.226Z,25.98
2023-01-27T03:20:32.584Z,25.20
2023-01-27T03:24:45.054Z,24.85
2023-01-27T03:29:17.172Z,23.92
2023-01-27T03:33:31.878Z,22.75
2023-01-27T03:38:13.213Z,25.45
2023-01-27T03:42:43.919Z,23.25
2023-01-27T03:46:56.251Z,24.67
2023-01-27T03:51:10.255Z,24.33
2023-01-27T03:55:23.447Z,24.67
2023-01-27T03:59:36.232Z,27.33
2023-01-27T04:04:07.802Z,25.40
2023-01-27T04:08:21.349Z,30.55
2023-01-27T04:12:33.743Z,29.45
2023-01-27T04:16:46.723Z,30.77
2023-01-27T04:21:00.867Z,32.20
2023-01-27T04:25:15.698Z,30.83
2023-01-27T04:29:30.911Z,30.05
2023-01-27T04:33:45.489Z,33.22
2023-01-27T04:37:58.065Z,37.30
2023-01-27T04:42:10.317Z,35.35
2023-01-27T04:46:23.078Z,33.13
2023-01-27T04:50:36.197Z,30.45
2023-01-27T04:54:48.490Z,29.95
2023-01-27T04:59:02.881Z,29.70
2023-01-27T05:03:19.061Z,28.75
2023-01-27T05:07:32.567Z,25.52
2023-01-27T05:11:44.934Z,26.73
2023-01-27T05:16:20.170Z,25.52
2023-01-27T05:20:32.584Z,26.05
2023-01-27T05:24:46.876Z,25.25
2023-01-27T05:29:01.018Z,25.20
2023-01-27T05:33:14.025Z,24.38
2023-01-27T05:37:30.113Z,23.80
2023-01-27T05:41:45.043Z,22.55
2023-01-27T05:46:08.228Z,23.80
2023-01-27T05:50:20.555Z,23.88
2023-01-27T05:54:34.005Z,21.85
2023-01-27T05:58:47.023Z,21.88
2023-01-27T06:02:59.694Z,22.58
2023-01-27T06:07:12.098Z,22.85
2023-01-27T06:11:25.337Z,21.92
2023-01-27T06:15:41.030Z,23.00
2023-01-27T06:19:53.430Z,30.95
2023-01-27T06:24:06.222Z,28.48
2023-01-27T06:28:33.704Z,23.40
2023-01-27T06:32:46.029Z,24.02
2023-01-27T06:36:58.403Z,29.20
2023-01-27T06:41:12.427Z,27.23
2023-01-27T06:45:25.885Z,33.38
2023-01-27T06:49:38.263Z,34.80
2023-01-27T06:53:55.426Z,33.53
2023-01-27T06:58:09.142Z,36.53
2023-01-27T07:02:22.241Z,32.40
2023-01-27T07:06:34.592Z,39.05
2023-01-27T07:10:46.956Z,37.90
2023-01-27T07:14:59.334Z,34.08
2023-01-27T07:19:12.867Z,35.15
2023-01-27T07:23:25.356Z,34.05
2023-01-27T07:27:37.769Z,35.38
2023-01-27T07:31:52.093Z,35.20
2023-01-27T07:36:04.619Z,35.35
2023-01-27T07:40:17.315Z,34.75
2023-01-27T07:44:29.743Z,33.10
2023-01-27T07:48:42.099Z,31.83
2023-01-27T07:52:56.056Z,33.22
2023-01-27T07:57:08.498Z,31.15
2023-01-27T08:01:20.844Z,31.08
2023-01-27T08:05:34.910Z,27.40
2023-01-27T08:09:47.258Z,30.10
2023-01-27T08:14:00.625Z,29.23
2023-01-27T08:18:13.096Z,35.00
2023-01-27T08:22:30.227Z,28.58
2023-01-27T08:26:42.686Z,34.38
2023-01-27T08:30:55.607Z,25.25
2023-01-27T08:35:08.366Z,37.13
2023-01-27T08:39:22.637Z,31.40
2023-01-27T08:43:35.370Z,35.55
2023-01-27T08:47:48.009Z,36.72
2023-01-27T08:52:00.416Z,37.08
2023-01-27T08:56:15.227Z,37.33
2023-01-27T09:00:28.120Z,31.95
2023-01-27T09:04:44.556Z,31.95
2023-01-27T09:09:19.928Z,29.75
2023-01-27T09:13:32.735Z,24.75
2023-01-27T09:17:45.506Z,23.50
2023-01-27T09:21:59.641Z,29.02
2023-01-27T09:26:12.063Z,24.45
2023-01-27T09:30:25.986Z,25.73
2023-01-27T09:34:39.076Z,25.58
2023-01-27T09:39:09.389Z,29.55
2023-01-27T09:43:36.631Z,28.98
2023-01-27T09:47:59.125Z,30.80
2023-01-27T09:52:46.889Z,34.97
2023-01-27T09:57:27.952Z,31.02
2023-01-27T10:01:52.650Z,27.25
2023-01-27T10:06:35.011Z,29.80
2023-01-27T10:10:53.346Z,30.42
2023-01-27T10:15:46.441Z,33.05
2023-01-27T10:20:19.390Z,30.75
2023-01-27T10:24:45.227Z,37.45
2023-01-27T10:29:26.199Z,32.58
2023-01-27T10:38:21.031Z,30.02
2023-01-27T10:43:07.308Z,27.05
2023-01-27T10:47:35.033Z,28.15
2023-01-27T10:52:11.661Z,32.03
2023-01-27T10:56:50.002Z,20.88
2023-01-27T11:01:20.783Z,17.70
2023-01-27T11:05:38.931Z,12.93
2023-01-27T11:10:06.353Z,10.13
2023-01-27T11:14:30.394Z,11.82
2023-01-27T11:18:46.891Z,11.80
2023-01-27T11:23:17.972Z,8.30
2023-01-27T11:27:53.366Z,8.68
2023-01-27T11:32:19.848Z,8.57
2023-01-27T11:36:34.883Z,10.68
2023-01-27T11:40:51.509Z,12.75
2023-01-27T11:45:04.757Z,12.07
2023-01-27T11:49:23.853Z,7.25
2023-01-27T11:53:40.548Z,5.20
2023-01-27T11:58:16.182Z,6.40
2023-01-27T12:02:37.570Z,7.88
2023-01-27T12:07:12.328Z,9.50
2023-01-27T12:11:30.518Z,9.27
2023-01-27T12:16:04.844Z,5.45
2023-01-27T12:20:17.434Z,7.50
2023-01-27T12:24:36.554Z,7.85
2023-01-27T12:28:55.096Z,8.82
2023-01-27T12:33:22.986Z,7.13
2023-01-27T12:37:38.866Z,8.30
2023-01-27T12:41:51.708Z,7.30
2023-01-27T12:46:16.186Z,7.13
2023-01-27T12:50:32.874Z,6.05
2023-01-27T12:54:45.296Z,5.22
2023-01-27T12:58:59.759Z,5.60
2023-01-27T13:03:13.711Z,8.70
2023-01-27T13:07:30.942Z,9.15
2023-01-27T13:11:45.711Z,7.32
2023-01-27T13:16:08.804Z,10.65
2023-01-27T13:20:56.436Z,6.57
2023-01-27T13:25:18.629Z,7.18
2023-01-27T13:29:35.215Z,9.95
2023-01-27T13:33:53.501Z,7.22
2023-01-27T13:38:21.020Z,14.60
2023-01-27T13:42:44.099Z,11.05
2023-01-27T13:47:03.140Z,11.05
2023-01-27T13:51:21.501Z,9.97
2023-01-27T13:56:17.469Z,14.27
2023-01-27T14:00:52.324Z,7.70
2023-01-27T14:05:19.765Z,10.52
2023-01-27T14:09:53.901Z,8.07
2023-01-27T14:14:25.728Z,6.43
2023-01-27T14:18:46.775Z,12.80
2023-01-27T14:23:09.889Z,8.68
2023-01-27T14:27:32.906Z,12.27
2023-01-27T14:32:03.493Z,14.65
2023-01-27T14:36:21.901Z,30.52
2023-01-27T14:40:54.224Z,11.90
2023-01-27T14:45:32.111Z,11.00
2023-01-27T14:50:06.279Z,16.20
2023-01-27T14:54:29.392Z,12.55
2023-01-27T14:58:41.692Z,11.25
2023-01-27T15:03:32.964Z,15.23
2023-01-27T15:12:44.519Z,14.18
2023-01-27T15:17:53.958Z,12.23
2023-01-27T15:22:33.752Z,16.35
2023-01-27T15:26:48.252Z,16.98
2023-01-27T15:31:07.183Z,18.60
2023-01-27T15:35:22.416Z,17.02
2023-01-27T15:40:15.700Z,19.92
2023-01-27T15:44:40.960Z,18.15
2023-01-27T15:48:55.619Z,20.42
2023-01-27T15:53:32.808Z,17.90
2023-01-27T15:57:45.431Z,22.70
2023-01-27T16:02:17.497Z,19.60
2023-01-27T16:06:31.499Z,21.85
2023-01-27T16:10:45.359Z,19.67
2023-01-27T16:15:16.173Z,21.77
2023-01-27T16:19:38.928Z,20.20
2023-01-27T16:24:01.973Z,22.30
2023-01-27T16:28:18.887Z,23.67
2023-01-27T16:32:41.672Z,21.90
2023-01-27T16:37:15.894Z,24.48
2023-01-27T16:41:32.949Z,21.65
2023-01-27T16:45:53.874Z,32.13
2023-01-27T16:50:06.851Z,21.67
2023-01-27T16:54:26.521Z,14.75
2023-01-27T16:58:46.730Z,10.90
2023-01-27T17:03:06.335Z,12.52
2023-01-27T17:07:19.013Z,12.65
2023-01-27T17:11:35.821Z,11.32
2023-01-27T17:15:57.785Z,16.30
2023-01-27T17:20:30.622Z,27.98
2023-01-27T17:24:53.062Z,6.97
2023-01-27T17:29:05.634Z,7.20
2023-01-27T17:33:21.059Z,6.70
2023-01-27T17:37:33.612Z,10.30
2023-01-27T17:41:46.443Z,8.63
2023-01-27T17:46:20.438Z,10.57
2023-01-27T17:50:39.820Z,9.38
2023-01-27T17:54:52.589Z,7.33
2023-01-27T17:59:21.294Z,5.95
2023-01-27T18:03:36.841Z,10.18
2023-01-27T18:07:49.662Z,8.10
2023-01-27T18:12:05.411Z,8.43
2023-01-27T18:16:20.648Z,9.10
2023-01-27T18:20:36.435Z,13.07
2023-01-27T18:24:55.372Z,8.75
2023-01-27T18:29:21.317Z,15.50
2023-01-27T18:33:34.296Z,29.88
2023-01-27T18:37:58.895Z,10.80
2023-01-27T18:42:15.542Z,11.88
2023-01-27T18:46:28.355Z,11.93
2023-01-27T18:50:46.272Z,11.73
2023-01-27T18:55:03.032Z,11.30
2023-01-27T18:59:15.458Z,11.48
2023-01-27T19:03:30.859Z,11.27
2023-01-27T19:07:43.288Z,10.40
2023-01-27T19:11:57.430Z,10.50
2023-01-27T19:20:30.644Z,13.05
2023-01-27T19:24:47.429Z,11.95
2023-01-27T19:28:59.892Z,15.00
2023-01-27T19:33:25.543Z,16.55
2023-01-27T19:37:39.025Z,17.60
2023-01-27T19:41:51.805Z,28.48
2023-01-27T19:46:13.917Z,29.35
2023-01-27T19:50:28.838Z,32.05
2023-01-27T19:54:41.212Z,34.45
2023-01-27T19:58:54.444Z,36.17
2023-01-27T20:03:07.902Z,31.98
2023-01-27T20:07:20.318Z,35.58
2023-01-27T20:11:37.216Z,31.67
2023-01-27T20:15:49.726Z,33.30
2023-01-27T20:20:02.337Z,35.30
2023-01-27T20:24:20.180Z,32.75
2023-01-27T20:28:32.671Z,28.30
2023-01-27T20:32:45.456Z,65.43
2023-01-27T20:36:58.065Z,32.28
2023-01-27T20:41:14.437Z,28.00
2023-01-27T20:45:26.840Z,26.73
2023-01-27T20:49:39.611Z,26.67
2023-01-27T20:53:52.249Z,27.63
2023-01-27T20:58:04.756Z,56.92
2023-01-27T21:02:17.356Z,60.90
2023-01-27T21:06:29.956Z,64.68
2023-01-27T21:10:43.431Z,51.88
2023-01-27T21:14:59.306Z,46.22
2023-01-27T21:19:12.475Z,50.72
2023-01-27T21:23:29.322Z,51.75
2023-01-27T21:27:48.221Z,49.92
2023-01-27T21:32:01.460Z,53.13
2023-01-27T21:36:14.603Z,52.58
2023-01-27T21:40:27.542Z,35.75
2023-01-27T21:44:58.206Z,37.17
2023-01-27T21:53:23.845Z,44.97
2023-01-27T21:57:36.664Z,37.08
2023-01-27T22:01:49.103Z,39.80
2023-01-27T22:06:08.580Z,53.75
2023-01-27T22:10:26.723Z,58.97
2023-01-27T22:14:39.060Z,48.35
2023-01-27T22:18:51.461Z,34.50
2023-01-27T22:23:03.816Z,33.97
2023-01-27T22:27:16.184Z,33.33
2023-01-27T22:31:28.730Z,19.38
2023-01-27T22:35:41.387Z,16.73
2023-01-27T22:39:53.684Z,15.40
2023-01-27T22:44:06.206Z,11.25
2023-01-27T22:48:18.522Z,13.40
2023-01-27T22:52:30.960Z,13.13
2023-01-27T22:56:43.590Z,17.63
2023-01-27T23:00:56.484Z,11.20
2023-01-27T23:05:10.151Z,12.85
2023-01-27T23:09:23.195Z,15.02
2023-01-27T23:13:36.702Z,13.82
2023-01-27T23:17:49.946Z,11.40
2023-01-27T23:22:03.547Z,13.35
2023-01-27T23:26:17.267Z,14.00
2023-01-27T23:30:29.712Z,11.98
2023-01-27T23:34:42.157Z,11.60
2023-01-27T23:38:54.484Z,10.02
2023-01-27T23:43:07.120Z,10.63
2023-01-27T23:47:19.454Z,16.08
2023-01-27T23:51:32.181Z,13.82
2023-01-27T23:55:44.962Z,11.10
2023-01-27T23:59:57.270Z,9.95
